Time;durP1;ratioP1;P1;durP2;ratioP2;P2;SDS_P1;SDS_P2;PMS_P1;PMS_P2;Temp;Humidity;BMP_temperature;BMP_pressure;BME280_temperature;BME280_humidity;BME280_pressure;Samples;Min_cycle;Max_cycle;Signal;HPM_P1;HPM_P2
2023/12/02 00:00:27;;;;;;;60.33;29.90;;;;;;;5.51;87.54;99237.13;3170762;28;20503;-71
2023/12/02 00:01:59;;;;;;;63.10;30.23;;;;;;;5.51;87.35;99233.72;3166486;28;20159;-70
2023/12/02 00:03:29;;;;;;;65.93;31.00;;;;;;;5.51;87.52;99244.03;3170109;28;20535;-69
2023/12/02 00:05:01;;;;;;;62.70;30.83;;;;;;;5.48;87.43;99240.66;3171020;28;20051;-70
2023/12/02 00:06:32;;;;;;;67.90;30.90;;;;;;;5.48;87.53;99239.81;3171077;28;20054;-70
2023/12/02 00:08:04;;;;;;;62.92;30.52;;;;;;;5.48;87.66;99247.56;3170703;28;20047;-69
2023/12/02 00:09:35;;;;;;;62.53;30.25;;;;;;;5.47;87.62;99236.41;3170618;28;20071;-70
2023/12/02 00:11:07;;;;;;;63.55;30.02;;;;;;;5.47;87.51;99235.53;3170975;28;20058;-70
2023/12/02 00:12:38;;;;;;;67.13;29.50;;;;;;;5.47;87.62;99238.97;3170285;28;20059;-70
2023/12/02 00:14:09;;;;;;;64.70;29.45;;;;;;;5.47;87.65;99240.69;3170841;28;20416;-70
2023/12/02 00:15:42;;;;;;;66.80;30.13;;;;;;;5.46;87.55;99241.59;3174654;27;20508;-70
2023/12/02 00:17:13;;;;;;;61.33;29.92;;;;;;;5.44;87.58;99239.09;3170686;28;20524;-70
2023/12/02 00:18:44;;;;;;;67.43;30.80;;;;;;;5.42;87.52;99243.44;3164246;28;20059;-70
2023/12/02 00:20:16;;;;;;;68.53;30.33;;;;;;;5.40;87.75;99239.22;3170761;28;20483;-70
2023/12/02 00:21:47;;;;;;;61.90;30.52;;;;;;;5.39;87.83;99251.28;3170620;28;20047;-70
2023/12/02 00:23:18;;;;;;;67.97;30.08;;;;;;;5.36;87.76;99246.22;3170429;28;20520;-70
2023/12/02 00:24:49;;;;;;;63.50;29.58;;;;;;;5.35;87.92;99239.34;3170833;28;20051;-69
2023/12/02 00:26:21;;;;;;;61.28;30.73;;;;;;;5.35;88.11;99226.44;3170568;28;20047;-70
2023/12/02 00:27:51;;;;;;;63.30;30.25;;;;;;;5.35;88.15;99231.63;3170760;28;20047;-70
2023/12/02 00:29:23;;;;;;;64.18;30.02;;;;;;;5.35;88.22;99231.63;3170510;28;20055;-69
2023/12/02 00:30:55;;;;;;;70.88;32.22;;;;;;;5.36;88.04;99227.31;3170840;28;20043;-70
2023/12/02 00:32:27;;;;;;;92.18;37.95;;;;;;;5.35;87.82;99225.63;3170309;28;20386;-70
2023/12/02 00:33:58;;;;;;;92.05;37.08;;;;;;;5.38;88.12;99215.19;3170180;28;20043;-70
2023/12/02 00:35:29;;;;;;;91.25;34.08;;;;;;;5.38;87.99;99220.34;3170430;28;20050;-70
2023/12/02 00:37:00;;;;;;;69.35;32.20;;;;;;;5.31;88.16;99219.72;3170229;28;20071;-70
2023/12/02 00:38:32;;;;;;;70.70;32.08;;;;;;;5.34;88.15;99218.78;3170246;28;20050;-69
2023/12/02 00:40:05;;;;;;;69.78;30.00;;;;;;;5.32;88.01;99205.91;3170646;28;20509;-70
2023/12/02 00:41:36;;;;;;;66.47;32.55;;;;;;;5.32;88.25;99211.06;3170085;28;20128;-70
2023/12/02 00:43:08;;;;;;;72.45;30.65;;;;;;;5.31;88.36;99214.56;3170540;28;20047;-70
2023/12/02 00:44:38;;;;;;;64.38;30.83;;;;;;;5.30;88.41;99201.72;3170457;27;20040;-70
2023/12/02 00:46:12;;;;;;;64.70;30.67;;;;;;;5.30;88.36;99191.38;3170598;28;20062;-70
2023/12/02 00:47:42;;;;;;;;;;;;;;;5.17;88.35;99199.50;3168577;28;20052;-69
2023/12/02 00:49:14;;;;;;;60.35;27.35;;;;;;;5.21;88.54;99200.28;3169653;28;19926;-69
2023/12/02 00:50:45;;;;;;;63.50;29.40;;;;;;;5.25;88.49;99213.00;3169619;28;20059;-70
2023/12/02 00:52:17;;;;;;;60.17;28.90;;;;;;;5.28;88.51;99204.31;3170228;28;20055;-69
2023/12/02 00:53:47;;;;;;;65.53;29.88;;;;;;;5.29;88.28;99212.91;3170352;28;20040;-69
2023/12/02 00:55:19;;;;;;;63.58;29.13;;;;;;;5.30;88.26;99212.88;3170140;28;20058;-69
2023/12/02 00:56:50;;;;;;;65.40;29.45;;;;;;;5.32;88.29;99207.66;3170136;28;20043;-69
2023/12/02 00:58:21;;;;;;;64.90;30.52;;;;;;;5.32;88.31;99205.91;3170346;28;20043;-70
2023/12/02 00:59:52;;;;;;;64.00;30.52;;;;;;;5.33;88.13;99201.59;3172267;27;20040;-69
2023/12/02 01:01:25;;;;;;;59.45;29.35;;;;;;;5.35;88.12;99195.47;3166833;28;20051;-69
2023/12/02 01:02:56;;;;;;;62.58;30.92;;;;;;;5.34;88.06;99195.53;3170509;28;20058;-70
2023/12/02 01:04:28;;;;;;;63.05;29.13;;;;;;;5.33;87.95;99205.03;3170148;28;20056;-69
2023/12/02 01:05:58;;;;;;;58.40;30.70;;;;;;;5.23;87.99;99186.44;3170176;28;20055;-70
2023/12/02 01:07:30;;;;;;;69.03;31.30;;;;;;;5.33;87.90;99206.78;3170281;28;20058;-69
2023/12/02 01:09:01;;;;;;;66.95;30.67;;;;;;;5.30;87.89;99217.19;3170002;28;20090;-70
2023/12/02 01:10:32;;;;;;;72.05;31.00;;;;;;;5.29;87.90;99215.50;3170068;28;20627;-69
2023/12/02 01:12:04;;;;;;;63.17;29.10;;;;;;;5.29;87.97;99207.75;3170149;28;20153;-70
2023/12/02 01:13:35;;;;;;;63.35;29.05;;;;;;;5.29;87.82;99218.06;3171805;27;20062;-71
2023/12/02 01:15:07;;;;;;;61.03;29.98;;;;;;;5.28;88.03;99218.97;3172251;27;20468;-69
2023/12/02 01:16:40;;;;;;;65.75;30.65;;;;;;;5.25;87.99;99218.19;3170035;28;20059;-71
2023/12/02 01:18:11;;;;;;;60.70;29.13;;;;;;;5.24;87.99;99213.06;3165607;28;20051;-71
2023/12/02 01:19:43;;;;;;;64.55;29.63;;;;;;;5.24;88.18;99208.75;3167689;28;20409;-69
2023/12/02 01:21:13;;;;;;;63.17;28.52;;;;;;;5.21;88.03;99201.13;3169770;28;20527;-71
2023/12/02 01:22:45;;;;;;;58.60;28.92;;;;;;;5.24;87.96;99206.16;3169734;28;20043;-70
2023/12/02 01:24:16;;;;;;;60.03;29.30;;;;;;;5.23;88.12;99206.22;3169732;28;20105;-70
2023/12/02 01:25:48;;;;;;;61.92;27.85;;;;;;;5.22;88.04;99197.63;3170122;28;20054;-70
2023/12/02 01:27:19;;;;;;;54.00;27.67;;;;;;;5.22;88.16;99201.94;3169902;28;20146;-71
2023/12/02 01:28:51;;;;;;;59.85;28.38;;;;;;;5.21;88.26;99198.53;3174765;27;20442;-70
2023/12/02 01:30:22;;;;;;;63.35;28.65;;;;;;;5.23;88.16;99191.59;3169209;28;20044;-70
2023/12/02 01:31:55;;;;;;;63.45;28.65;;;;;;;5.22;88.21;99202.78;3169923;28;20127;-70
2023/12/02 01:33:25;;;;;;;64.60;28.27;;;;;;;5.21;88.16;99208.03;3169603;28;20417;-69
2023/12/02 01:34:57;;;;;;;60.58;28.98;;;;;;;5.21;88.17;99210.59;3169775;28;20039;-70
2023/12/02 01:36:28;;;;;;;70.15;29.95;;;;;;;5.21;88.21;99208.84;3170105;28;20048;-70
2023/12/02 01:38:00;;;;;;;59.28;27.55;;;;;;;5.21;88.10;99203.69;3169500;28;20059;-70
2023/12/02 01:39:30;;;;;;;59.92;27.17;;;;;;;5.19;88.12;99196.88;3169077;28;20043;-70
2023/12/02 01:41:02;;;;;;;63.88;30.35;;;;;;;5.18;87.99;99196.06;3168968;28;20054;-70
2023/12/02 01:42:33;;;;;;;56.42;28.13;;;;;;;5.14;88.06;99198.75;3169504;28;20055;-69
2023/12/02 01:44:05;;;;;;;59.55;29.25;;;;;;;5.14;87.93;99217.69;3174180;27;20047;-69
2023/12/02 01:45:36;;;;;;;58.45;28.45;;;;;;;5.12;87.96;99209.16;3169831;28;20079;-70
2023/12/02 01:47:09;;;;;;;55.63;28.48;;;;;;;5.12;88.11;99205.75;3169631;28;20055;-70
2023/12/02 01:48:41;;;;;;;56.72;28.80;;;;;;;5.08;88.42;99199.81;3167076;28;20087;-71
2023/12/02 01:50:12;;;;;;;59.60;28.08;;;;;;;5.09;88.42;99209.25;3169150;28;20048;-72
2023/12/02 01:51:44;;;;;;;56.28;26.55;;;;;;;5.08;88.34;99207.56;3169007;28;20109;-72
2023/12/02 01:53:15;;;;;;;65.30;28.45;;;;;;;5.08;88.37;99202.38;3169341;28;20052;-71
2023/12/02 01:54:47;;;;;;;61.67;28.02;;;;;;;5.08;88.34;99196.38;3169687;28;20427;-71
2023/12/02 01:56:18;;;;;;;63.65;28.67;;;;;;;5.05;88.29;99196.50;3169478;28;20075;-70
2023/12/02 01:57:50;;;;;;;58.88;26.98;;;;;;;5.01;88.45;99198.34;3173896;27;20051;-69
2023/12/02 01:59:22;;;;;;;57.40;27.30;;;;;;;5.00;88.43;99201.81;3169159;28;20138;-70
2023/12/02 02:00:54;;;;;;;63.20;28.90;;;;;;;4.99;88.57;99195.78;3169490;28;20508;-70
2023/12/02 02:02:26;;;;;;;54.50;25.85;;;;;;;4.98;88.60;99191.53;3169450;28;20058;-71
2023/12/02 02:03:59;;;;;;;57.45;26.55;;;;;;;4.97;88.68;99178.69;3169364;28;20136;-71
2023/12/02 02:05:30;;;;;;;56.30;26.15;;;;;;;4.95;88.69;99175.31;3169290;28;20083;-71
2023/12/02 02:07:01;;;;;;;56.38;27.45;;;;;;;4.94;88.79;99181.34;3169254;28;20509;-71
2023/12/02 02:08:32;;;;;;;49.38;24.98;;;;;;;4.94;88.96;99183.91;3169368;28;20543;-73
2023/12/02 02:10:05;;;;;;;56.00;27.83;;;;;;;4.96;88.93;99197.63;3169168;28;20047;-70
2023/12/02 02:11:36;;;;;;;56.22;26.30;;;;;;;4.95;88.86;99183.88;3168873;28;20063;-70
2023/12/02 02:13:08;;;;;;;48.88;24.70;;;;;;;4.96;88.76;99182.97;3173776;27;20055;-71
2023/12/02 02:14:38;;;;;;;51.70;25.88;;;;;;;4.97;88.78;99189.00;3169383;28;20048;-71
2023/12/02 02:16:10;;;;;;;51.75;25.52;;;;;;;4.98;88.76;99195.84;3169119;28;20444;-71
2023/12/02 02:17:42;;;;;;;50.50;25.40;;;;;;;4.94;88.63;99181.34;3169384;28;20055;-71
2023/12/02 02:19:18;;;;;;;51.70;25.00;;;;;;;4.96;88.58;99187.31;3164265;28;20522;-71
2023/12/02 02:20:50;;;;;;;49.53;24.92;;;;;;;4.97;88.59;99192.44;3166126;28;20067;-71
2023/12/02 02:22:23;;;;;;;54.50;25.20;;;;;;;4.96;88.27;99180.41;3169573;28;20048;-71
2023/12/02 02:23:54;;;;;;;53.05;25.52;;;;;;;4.97;88.41;99183.84;3169236;28;20051;-70
2023/12/02 02:25:26;;;;;;;53.03;25.10;;;;;;;4.95;88.49;99163.25;3168860;28;20046;-70
2023/12/02 02:26:56;;;;;;;59.33;24.27;;;;;;;4.98;88.41;99162.31;3173846;28;20073;-70
2023/12/02 02:28:29;;;;;;;52.97;26.15;;;;;;;5.00;88.30;99170.84;3169279;28;20048;-71
2023/12/02 02:30:00;;;;;;;57.42;27.38;;;;;;;4.97;88.42;99165.78;3168849;28;20063;-70
2023/12/02 02:31:31;;;;;;;55.95;27.23;;;;;;;4.94;88.54;99163.28;3169128;28;20397;-71
2023/12/02 02:33:02;;;;;;;49.80;26.20;;;;;;;4.92;88.73;99162.50;3169041;28;20066;-71
2023/12/02 02:34:34;;;;;;;54.95;26.23;;;;;;;4.93;88.78;99165.03;3169209;28;20195;-71
2023/12/02 02:36:06;;;;;;;52.53;26.13;;;;;;;4.94;88.89;99155.53;3169132;28;20036;-71
2023/12/02 02:37:39;;;;;;;54.58;25.63;;;;;;;4.96;88.82;99164.09;3168225;28;20650;-70
2023/12/02 02:39:10;;;;;;;55.40;26.42;;;;;;;4.94;88.74;99159.00;3169184;28;20056;-71
2023/12/02 02:40:42;;;;;;;52.75;25.80;;;;;;;4.96;88.73;99153.75;3169169;28;20052;-72
2023/12/02 02:42:13;;;;;;;55.08;25.58;;;;;;;4.97;88.67;99160.63;3165601;28;20408;-71
2023/12/02 02:43:45;;;;;;;52.13;26.25;;;;;;;4.99;88.71;99151.91;3161193;28;20054;-72
2023/12/02 02:45:16;;;;;;;49.17;25.90;;;;;;;4.99;88.76;99143.34;3169155;28;20047;-72
2023/12/02 02:46:48;;;;;;;56.42;27.75;;;;;;;4.97;88.53;99140.81;3169257;28;20079;-71
2023/12/02 02:48:18;;;;;;;55.13;27.05;;;;;;;4.96;88.60;99136.53;3169085;28;20055;-71
2023/12/02 02:49:50;;;;;;;55.55;27.48;;;;;;;4.99;88.53;99143.34;3169155;28;20063;-71
2023/12/02 02:51:21;;;;;;;49.10;26.30;;;;;;;4.99;88.54;99135.59;3169060;28;20413;-70
2023/12/02 02:52:54;;;;;;;52.20;26.00;;;;;;;5.00;88.63;99137.31;3169284;28;20052;-70
2023/12/02 02:54:25;;;;;;;49.00;24.60;;;;;;;4.34;88.44;99031.09;3156935;28;20056;-71
2023/12/02 02:55:56;;;;;;;54.45;25.33;;;;;;;5.00;88.61;99140.72;3168191;28;20047;-71
2023/12/02 02:57:27;;;;;;;51.42;24.88;;;;;;;4.97;88.43;99129.66;3169072;28;20512;-71
2023/12/02 02:58:59;;;;;;;47.70;24.13;;;;;;;4.97;88.65;99124.50;3168897;28;20134;-70
2023/12/02 03:00:30;;;;;;;49.45;24.65;;;;;;;4.98;88.53;99128.75;3168471;28;20055;-71
2023/12/02 03:02:01;;;;;;;48.17;24.55;;;;;;;4.96;88.53;99122.81;3168559;28;20451;-70
2023/12/02 03:03:33;;;;;;;47.28;24.50;;;;;;;4.96;88.80;99131.38;3170400;28;20540;-70
2023/12/02 03:05:06;;;;;;;48.97;23.77;;;;;;;4.97;88.63;99137.41;3171384;28;20048;-69
2023/12/02 03:06:37;;;;;;;47.50;22.90;;;;;;;4.96;88.58;99130.53;3171359;28;20051;-71
2023/12/02 03:08:10;;;;;;;46.65;22.85;;;;;;;4.96;88.77;99120.22;3171676;28;20048;-69
2023/12/02 03:09:42;;;;;;;46.67;22.50;;;;;;;4.96;88.59;99115.06;3171274;28;20521;-71
2023/12/02 03:11:14;;;;;;;46.47;22.52;;;;;;;4.96;88.70;99121.06;3170719;28;20055;-71
2023/12/02 03:12:45;;;;;;;39.15;20.50;;;;;;;4.97;88.88;99124.50;3165863;28;20540;-70
2023/12/02 03:14:17;;;;;;;46.67;23.08;;;;;;;4.94;88.68;99119.41;3171630;28;20055;-71
2023/12/02 03:15:47;;;;;;;46.13;23.15;;;;;;;4.86;88.81;99099.06;3171544;28;20047;-70
2023/12/02 03:17:19;;;;;;;44.85;22.40;;;;;;;4.97;88.92;99112.44;3171498;28;20134;-69
2023/12/02 03:18:50;;;;;;;48.17;22.30;;;;;;;4.95;88.97;99123.69;3171361;28;20044;-69
2023/12/02 03:20:22;;;;;;;42.95;22.50;;;;;;;4.98;89.05;99119.28;3171647;28;20055;-70
2023/12/02 03:21:52;;;;;;;39.78;21.17;;;;;;;4.99;89.23;99117.53;3171458;28;20051;-69
2023/12/02 03:23:26;;;;;;;42.28;21.00;;;;;;;4.96;89.00;99115.91;3171262;28;20446;-70
2023/12/02 03:24:57;;;;;;;42.28;21.48;;;;;;;4.99;89.14;99125.28;3172560;27;20051;-70
2023/12/02 03:26:28;;;;;;;41.97;19.88;;;;;;;4.97;89.09;99127.09;3173163;27;20117;-70
2023/12/02 03:27:59;;;;;;;41.42;20.45;;;;;;;5.00;89.08;99140.72;3170977;28;20531;-70
2023/12/02 03:29:31;;;;;;;41.92;21.05;;;;;;;5.02;89.02;99145.81;3170707;28;20052;-69
2023/12/02 03:31:02;;;;;;;43.35;21.83;;;;;;;5.03;89.07;99129.47;3171312;28;20039;-72
2023/12/02 03:32:34;;;;;;;46.97;21.48;;;;;;;5.02;88.98;99128.59;3171367;28;20046;-72
2023/12/02 03:34:05;;;;;;;48.20;22.10;;;;;;;5.05;89.06;99131.97;3170588;28;20055;-70
2023/12/02 03:35:36;;;;;;;40.55;20.13;;;;;;;5.05;89.11;99130.22;3171102;28;20149;-70
2023/12/02 03:37:08;;;;;;;49.20;24.38;;;;;;;4.95;89.06;99106.47;3170744;28;20059;-70
2023/12/02 03:38:41;;;;;;;47.53;23.45;;;;;;;4.97;89.14;99109.03;3170648;28;20163;-71
2023/12/02 03:40:13;;;;;;;43.92;23.35;;;;;;;4.92;89.06;99123.81;3175371;27;20051;-70
2023/12/02 03:41:43;;;;;;;48.42;24.05;;;;;;;4.88;89.29;99132.53;3169717;28;20404;-71
2023/12/02 03:43:15;;;;;;;49.00;23.63;;;;;;;4.85;89.25;99133.50;3165810;28;20055;-70
2023/12/02 03:44:46;;;;;;;50.75;24.08;;;;;;;4.83;89.16;99126.69;3170940;28;20385;-71
2023/12/02 03:46:18;;;;;;;58.90;25.67;;;;;;;4.75;89.14;99121.75;3171147;28;20047;-69
2023/12/02 03:47:48;;;;;;;50.53;26.00;;;;;;;4.68;89.36;99128.88;3170917;28;20128;-68
2023/12/02 03:49:20;;;;;;;55.30;25.90;;;;;;;4.66;89.42;99137.53;3171297;28;20138;-68
2023/12/02 03:50:51;;;;;;;57.00;26.02;;;;;;;4.63;89.43;99129.91;3171095;28;20547;-67
2023/12/02 03:52:23;;;;;;;59.20;26.48;;;;;;;4.63;89.34;99138.47;3171149;28;20063;-67
2023/12/02 03:53:56;;;;;;;49.28;25.45;;;;;;;4.62;89.24;99131.63;3171386;28;20252;-68
2023/12/02 03:55:28;;;;;;;47.60;25.27;;;;;;;4.56;89.13;99131.84;3166495;28;20104;-70
2023/12/02 03:56:59;;;;;;;50.95;24.02;;;;;;;4.56;89.10;99126.69;3170845;28;20710;-69
2023/12/02 03:58:31;;;;;;;50.20;24.73;;;;;;;4.55;88.77;99122.38;3170816;28;20047;-67
2023/12/02 04:00:10;;;;;;;47.50;25.20;;;;;;;4.53;88.67;99127.63;3170650;28;20043;-69
2023/12/02 04:01:42;;;;;;;47.72;23.77;;;;;;;4.50;88.60;99134.59;3170618;28;20166;-68
2023/12/02 04:03:13;;;;;;;50.13;24.20;;;;;;;4.48;88.66;99120.91;3170941;28;20051;-69
2023/12/02 04:04:45;;;;;;;56.08;25.63;;;;;;;4.49;88.48;99125.16;3171128;28;20448;-68
2023/12/02 04:06:15;;;;;;;49.80;24.10;;;;;;;4.48;88.45;99120.91;3170713;28;20054;-69
2023/12/02 04:07:47;;;;;;;51.22;25.42;;;;;;;4.47;88.42;99119.22;3170764;28;20452;-68
2023/12/02 04:09:19;;;;;;;48.17;24.30;;;;;;;4.48;88.18;99113.19;3168743;27;20121;-68
2023/12/02 04:10:51;;;;;;;47.05;24.45;;;;;;;4.47;88.27;99106.34;3170401;28;20047;-67
2023/12/02 04:12:22;;;;;;;46.53;23.85;;;;;;;4.44;88.29;99109.03;3167410;28;20099;-67
2023/12/02 04:13:54;;;;;;;50.60;25.40;;;;;;;4.42;88.05;99105.63;3168997;28;20165;-68
2023/12/02 04:15:25;;;;;;;48.83;24.88;;;;;;;4.39;88.13;99090.25;3171043;28;20163;-69
2023/12/02 04:16:57;;;;;;;50.40;24.20;;;;;;;4.34;87.96;99078.34;3170497;28;20062;-69
2023/12/02 04:18:28;;;;;;;52.67;23.90;;;;;;;4.33;88.18;99079.25;3171065;28;20055;-69
2023/12/02 04:19:59;;;;;;;48.47;24.17;;;;;;;4.33;88.23;99070.69;3170617;28;20055;-69
2023/12/02 04:21:31;;;;;;;49.28;24.77;;;;;;;4.31;88.18;99070.72;3170688;28;20074;-68
2023/12/02 04:23:04;;;;;;;51.53;24.77;;;;;;;4.33;88.15;99088.72;3170886;28;20047;-68
2023/12/02 04:24:36;;;;;;;45.58;23.00;;;;;;;4.33;88.34;99078.41;3165745;28;20056;-68
2023/12/02 04:26:08;;;;;;;47.42;23.38;;;;;;;4.32;88.11;99076.72;3170319;28;20094;-69
2023/12/02 04:27:38;;;;;;;49.13;24.40;;;;;;;4.34;88.10;99077.50;3170594;28;20047;-69
2023/12/02 04:29:10;;;;;;;51.47;24.20;;;;;;;4.34;88.13;99075.75;3170312;28;20062;-68
2023/12/02 04:30:41;;;;;;;43.78;23.77;;;;;;;4.34;88.02;99065.44;3169674;28;20047;-68
2023/12/02 04:32:13;;;;;;;49.15;24.67;;;;;;;4.34;88.05;99067.19;3170526;28;20044;-67
2023/12/02 04:33:44;;;;;;;45.67;23.88;;;;;;;4.36;88.19;99086.03;3170292;28;20071;-68
2023/12/02 04:35:15;;;;;;;46.25;24.70;;;;;;;4.37;88.04;99110.09;3170594;28;20047;-69
2023/12/02 04:36:46;;;;;;;41.65;23.00;;;;;;;4.34;87.98;99103.28;3170071;28;20047;-69
2023/12/02 04:38:18;;;;;;;48.55;24.90;;;;;;;4.37;87.86;99115.22;3174902;27;20439;-68
2023/12/02 04:39:51;;;;;;;48.58;24.42;;;;;;;4.37;87.97;99122.97;3170561;28;20083;-69
2023/12/02 04:41:22;;;;;;;49.75;24.08;;;;;;;4.34;87.90;99122.16;3169849;28;20057;-68
2023/12/02 04:42:54;;;;;;;44.22;24.05;;;;;;;4.35;87.80;99128.19;3164016;28;20044;-69
2023/12/02 04:44:25;;;;;;;49.42;25.13;;;;;;;4.33;87.81;99125.63;3170298;28;20052;-71
2023/12/02 04:45:57;;;;;;;53.35;26.25;;;;;;;4.31;87.82;99122.25;3170433;28;20446;-70
2023/12/02 04:47:28;;;;;;;51.40;25.80;;;;;;;4.31;87.95;99108.53;3170347;28;20636;-71
2023/12/02 04:49:00;;;;;;;55.70;27.40;;;;;;;4.31;87.85;99105.97;3170735;28;20054;-71
2023/12/02 04:50:30;;;;;;;55.35;28.42;;;;;;;4.28;87.89;99112.03;3170448;28;20047;-71
2023/12/02 04:52:02;;;;;;;60.22;30.52;;;;;;;3.87;88.15;99047.19;3170289;28;20044;-74
2023/12/02 04:53:34;;;;;;;56.92;29.05;;;;;;;3.99;88.42;99050.25;3173632;27;20047;-72
2023/12/02 04:55:07;;;;;;;54.15;27.35;;;;;;;4.24;88.48;99089.84;3170118;28;20048;-73
2023/12/02 04:56:39;;;;;;;63.00;29.25;;;;;;;4.21;88.62;99091.69;3169895;28;20039;-71
2023/12/02 04:58:10;;;;;;;57.70;28.35;;;;;;;4.19;88.72;99096.03;3170272;28;20070;-67
2023/12/02 04:59:42;;;;;;;57.03;28.63;;;;;;;4.17;88.90;99092.66;3169824;28;20409;-72
2023/12/02 05:01:13;;;;;;;51.47;27.90;;;;;;;4.18;89.05;99105.50;3170143;28;20058;-74
2023/12/02 05:02:45;;;;;;;57.65;27.95;;;;;;;4.18;89.16;99112.38;3169649;28;20060;-74
2023/12/02 05:04:16;;;;;;;53.97;26.40;;;;;;;4.17;89.13;99106.41;3170204;28;20102;-72
2023/12/02 05:05:48;;;;;;;56.20;26.85;;;;;;;4.06;89.38;99075.78;3169720;28;20047;-72
2023/12/02 05:07:18;;;;;;;56.42;26.48;;;;;;;4.18;89.11;99105.50;3174067;27;20047;-75
2023/12/02 05:08:50;;;;;;;56.40;27.60;;;;;;;4.18;89.36;99102.09;3170031;28;20063;-70
2023/12/02 05:10:22;;;;;;;57.38;28.48;;;;;;;4.21;89.28;99095.09;3169215;28;20135;-71
2023/12/02 05:11:54;;;;;;;56.25;27.83;;;;;;;4.21;89.31;99097.66;3168039;28;20091;-74
2023/12/02 05:13:25;;;;;;;56.92;28.67;;;;;;;4.20;89.29;99101.16;3169735;28;20051;-71
2023/12/02 05:14:57;;;;;;;60.60;28.50;;;;;;;4.21;89.32;99092.53;3169485;28;20077;-69
2023/12/02 05:16:27;;;;;;;59.55;31.75;;;;;;;4.23;89.30;99088.16;3166631;28;20055;-68
2023/12/02 05:17:59;;;;;;;59.20;30.10;;;;;;;4.24;89.35;99096.75;3163661;28;20047;-71
2023/12/02 05:19:30;;;;;;;57.55;29.77;;;;;;;4.22;89.19;99099.34;3169404;28;20048;-75
2023/12/02 05:21:02;;;;;;;60.50;28.88;;;;;;;4.23;89.44;99090.75;3169906;28;20055;-74
2023/12/02 05:22:33;;;;;;;54.45;29.15;;;;;;;4.23;89.49;99085.59;3175992;27;20047;-73
2023/12/02 05:24:05;;;;;;;52.58;27.70;;;;;;;4.19;89.49;99088.28;3169366;28;20607;-75
2023/12/02 05:25:38;;;;;;;57.78;27.60;;;;;;;4.19;89.80;99078.00;3167961;28;20067;-74
2023/12/02 05:27:09;;;;;;;57.67;28.45;;;;;;;4.19;89.62;99080.56;3169754;28;20052;-76
2023/12/02 05:28:41;;;;;;;55.15;27.50;;;;;;;4.19;89.82;99096.88;3169893;28;20070;-73
2023/12/02 05:30:12;;;;;;;56.45;27.85;;;;;;;4.20;89.78;99096.00;3169581;28;20055;-74
2023/12/02 05:31:44;;;;;;;57.42;27.77;;;;;;;4.21;89.76;99089.09;3170161;28;20055;-72
2023/12/02 05:33:15;;;;;;;56.90;26.88;;;;;;;4.21;89.89;99079.63;3169934;28;20125;-71
2023/12/02 05:34:47;;;;;;;58.40;27.55;;;;;;;4.21;89.92;99087.38;3169537;28;20067;-73
2023/12/02 05:36:17;;;;;;;57.97;27.75;;;;;;;4.18;89.81;99082.31;3171176;27;20049;-75
2023/12/02 05:37:50;;;;;;;59.40;29.10;;;;;;;4.20;89.98;99075.38;3171829;27;20154;-73
2023/12/02 05:39:21;;;;;;;64.05;29.45;;;;;;;4.19;89.99;99081.41;3169768;28;20506;-68
2023/12/02 05:40:54;;;;;;;62.95;28.83;;;;;;;4.15;90.09;99066.94;3169856;28;20109;-73
2023/12/02 05:42:25;;;;;;;49.10;26.25;;;;;;;4.20;90.07;99075.38;3164887;28;20385;-69
2023/12/02 05:43:57;;;;;;;57.17;27.38;;;;;;;4.21;90.03;99074.47;3167870;28;20048;-72
2023/12/02 05:45:27;;;;;;;55.40;28.42;;;;;;;4.24;90.06;99084.69;3168626;28;20059;-74
2023/12/02 05:46:59;;;;;;;55.03;26.80;;;;;;;3.77;89.93;99014.84;3168237;28;20523;-68
2023/12/02 05:48:30;;;;;;;116.95;57.47;;;;;;;4.26;90.21;99082.03;3168622;28;20425;-71
2023/12/02 05:50:02;;;;;;;252.38;115.28;;;;;;;4.31;90.07;99091.31;3168440;27;20175;-70
2023/12/02 05:51:37;;;;;;;152.43;75.30;;;;;;;4.36;90.06;99087.78;3170091;28;20515;-75
2023/12/02 05:53:09;;;;;;;114.88;58.63;;;;;;;4.40;90.03;99094.50;3168706;28;21555;-74
2023/12/02 05:54:40;;;;;;;138.93;63.00;;;;;;;4.43;89.94;99084.94;3168692;28;20059;-71
2023/12/02 05:56:13;;;;;;;106.70;49.83;;;;;;;4.36;89.61;99067.16;3168082;28;20133;-72
2023/12/02 05:57:45;;;;;;;66.35;31.85;;;;;;;4.40;89.56;99069.56;3168214;28;20621;-69
2023/12/02 05:59:17;;;;;;;53.20;27.42;;;;;;;4.56;89.45;99086.25;3167743;28;20055;-68
2023/12/02 06:00:49;;;;;;;53.53;26.48;;;;;;;4.59;89.55;99087.91;3168164;28;20047;-68
2023/12/02 06:02:20;;;;;;;53.58;28.67;;;;;;;4.30;89.44;99035.53;3168505;28;20059;-67
2023/12/02 06:03:51;;;;;;;54.70;27.13;;;;;;;4.68;89.49;99092.75;3166625;28;20359;-69
2023/12/02 06:05:22;;;;;;;56.03;26.02;;;;;;;4.75;89.56;99090.81;3169284;28;20508;-67
2023/12/02 06:06:54;;;;;;;53.80;25.90;;;;;;;4.82;89.57;99102.59;3173145;27;20039;-69
2023/12/02 06:08:25;;;;;;;50.28;25.52;;;;;;;4.86;89.41;99080.16;3168297;28;20062;-66
2023/12/02 06:09:56;;;;;;;52.40;26.67;;;;;;;4.94;89.32;99091.03;3168020;28;20044;-69
2023/12/02 06:11:28;;;;;;;47.42;25.48;;;;;;;5.00;89.17;99102.00;3169339;28;20058;-72
2023/12/02 06:13:00;;;;;;;47.88;25.77;;;;;;;5.02;89.05;99104.53;3168916;28;20055;-71
2023/12/02 06:14:32;;;;;;;55.30;26.48;;;;;;;4.79;89.10;99058.84;3168226;28;20040;-69
2023/12/02 06:16:04;;;;;;;55.88;26.75;;;;;;;5.08;88.96;99104.31;3165188;28;20044;-70
2023/12/02 06:17:35;;;;;;;55.22;26.42;;;;;;;5.10;89.05;99112.03;3165487;28;20047;-73
2023/12/02 06:19:06;;;;;;;51.72;25.30;;;;;;;5.12;89.09;99118.81;3168140;28;20055;-69
2023/12/02 06:20:37;;;;;;;54.00;27.98;;;;;;;5.16;89.00;99119.56;3168950;28;20402;-73
2023/12/02 06:22:09;;;;;;;53.20;26.42;;;;;;;5.15;89.08;99099.81;3168237;28;20055;-72
2023/12/02 06:23:41;;;;;;;48.40;25.73;;;;;;;5.22;88.92;99102.13;3169271;28;20058;-72
2023/12/02 06:25:11;;;;;;;50.42;25.83;;;;;;;5.24;88.72;99102.91;3167852;28;20120;-69
2023/12/02 06:26:45;;;;;;;48.45;26.13;;;;;;;5.28;88.63;99088.16;3167596;28;20113;-69
2023/12/02 06:28:15;;;;;;;51.65;26.33;;;;;;;5.29;88.66;99104.47;3169073;28;20054;-67
2023/12/02 06:29:47;;;;;;;50.42;26.20;;;;;;;5.33;88.67;99113.81;3168406;28;20531;-67
2023/12/02 06:31:18;;;;;;;46.38;25.02;;;;;;;5.33;88.42;99106.09;3167892;28;20056;-67
2023/12/02 06:32:50;;;;;;;54.65;24.85;;;;;;;5.37;88.73;99099.91;3168846;28;20422;-69
2023/12/02 06:34:21;;;;;;;48.40;23.27;;;;;;;5.41;88.61;99096.31;3168369;28;20066;-69
2023/12/02 06:35:52;;;;;;;44.80;21.67;;;;;;;5.41;88.48;99099.75;3170577;28;20048;-70
2023/12/02 06:37:24;;;;;;;44.85;22.30;;;;;;;5.43;88.62;99100.53;3168514;28;20450;-66
2023/12/02 06:38:56;;;;;;;50.80;23.13;;;;;;;5.44;88.48;99106.53;3171936;28;20059;-69
2023/12/02 06:40:26;;;;;;;61.35;24.30;;;;;;;5.41;88.26;99099.75;3170571;28;20441;-66
2023/12/02 06:42:00;;;;;;;44.60;23.88;;;;;;;5.44;88.53;99107.38;3170044;28;20054;-65
2023/12/02 06:43:30;;;;;;;;;;;;;;;5.33;88.57;99121.56;3171077;28;20097;-66
2023/12/02 06:45:03;;;;;;;52.70;24.35;;;;;;;5.39;88.74;99114.44;3171468;28;19919;-67
2023/12/02 06:46:34;;;;;;;50.60;24.02;;;;;;;5.44;88.66;99106.53;3170036;28;20188;-65
2023/12/02 06:48:06;;;;;;;50.00;23.88;;;;;;;5.48;88.74;99110.69;3169720;28;20132;-64
2023/12/02 06:49:37;;;;;;;46.45;24.67;;;;;;;5.55;88.50;99108.72;3173201;27;20071;-66
2023/12/02 06:51:10;;;;;;;47.80;23.88;;;;;;;5.62;88.43;99103.31;3174302;27;20659;-65
2023/12/02 06:52:43;;;;;;;49.90;24.35;;;;;;;5.66;88.14;99102.28;3170683;28;20047;-67
2023/12/02 06:54:15;;;;;;;46.28;23.08;;;;;;;5.72;88.26;99102.97;3170954;28;20614;-63
2023/12/02 06:55:46;;;;;;;145.10;63.33;;;;;;;5.78;87.85;99110.50;3170966;28;20043;-66
2023/12/02 06:57:19;;;;;;;62.00;30.20;;;;;;;5.78;87.58;99102.75;3170001;28;20050;-73
2023/12/02 06:58:51;;;;;;;108.57;50.25;;;;;;;5.86;87.48;99108.47;3170795;28;20055;-66
2023/12/02 07:00:23;;;;;;;71.55;30.95;;;;;;;5.90;87.49;99110.03;3171203;28;20071;-66
2023/12/02 07:01:53;;;;;;;62.80;26.67;;;;;;;5.95;87.23;99117.66;3170554;28;20064;-64
2023/12/02 07:03:25;;;;;;;57.03;26.15;;;;;;;5.98;87.11;99108.06;3170396;28;20433;-67
2023/12/02 07:04:56;;;;;;;57.95;24.90;;;;;;;6.06;87.09;99115.50;3175158;27;20050;-67
2023/12/02 07:06:29;;;;;;;53.42;24.90;;;;;;;6.11;86.92;99121.34;3175588;27;20039;-63